createdAt,value
2019-05-30T00:00:33.877Z,100968.02
2019-05-30T00:05:37.905Z,100974.97
2019-05-30T00:15:51.791Z,100974.24
2019-05-30T00:20:56.733Z,100966.54
2019-05-30T00:26:01.377Z,100964.16
2019-05-30T00:31:06.612Z,100964.16
2019-05-30T00:36:10.761Z,100973.61
2019-05-30T00:41:14.973Z,100991.23
2019-05-30T00:46:18.993Z,100970.89
2019-05-30T00:51:23.251Z,100990.39
2019-05-30T00:56:27.230Z,100962.44
2019-05-30T01:01:31.360Z,100962.44
2019-05-30T01:06:35.396Z,100981.22
2019-05-30T01:11:39.402Z,100983.23
2019-05-30T01:16:43.427Z,100989.23
2019-05-30T01:21:47.629Z,100989.23
2019-05-30T01:26:51.755Z,100970.71
2019-05-30T01:31:55.781Z,100988.83
2019-05-30T01:36:59.891Z,100982.30
2019-05-30T01:42:04.047Z,100983.34
2019-05-30T01:47:08.399Z,100980.37
2019-05-30T01:52:13.138Z,100983.66
2019-05-30T01:57:17.292Z,100976.23
2019-05-30T02:02:21.331Z,100976.23
2019-05-30T02:07:25.370Z,100970.05
2019-05-30T02:12:29.517Z,100970.05
2019-05-30T02:17:33.740Z,100995.28
2019-05-30T02:22:37.861Z,100987.58
2019-05-30T02:27:41.941Z,100977.87
2019-05-30T02:32:46.072Z,100985.16
2019-05-30T02:37:50.231Z,101008.67
2019-05-30T02:42:54.325Z,101007.81
2019-05-30T02:47:58.444Z,101007.81
2019-05-30T02:53:03.662Z,101012.13
2019-05-30T02:58:10.236Z,101010.89
2019-05-30T03:03:14.911Z,101019.56
2019-05-30T03:08:19.261Z,101017.91
2019-05-30T03:13:23.645Z,101030.52
2019-05-30T03:18:27.817Z,101027.55
2019-05-30T03:23:32.173Z,101025.89
2019-05-30T03:28:36.364Z,101034.46
2019-05-30T03:33:42.909Z,101035.05
2019-05-30T03:38:46.558Z,101034.63
2019-05-30T03:43:50.630Z,101036.56
2019-05-30T03:48:55.941Z,101037.05
2019-05-30T03:54:01.822Z,101040.70
2019-05-30T03:59:21.252Z,101051.50
2019-05-30T04:04:29.425Z,101051.50
2019-05-30T04:09:35.862Z,101048.00
2019-05-30T04:14:42.966Z,101054.81
2019-05-30T04:19:47.009Z,101058.47
2019-05-30T04:24:51.040Z,101056.74
2019-05-30T04:29:55.106Z,101041.00
2019-05-30T04:34:59.151Z,101045.05
2019-05-30T04:40:03.321Z,101059.98
2019-05-30T04:45:09.492Z,101065.80
2019-05-30T04:50:15.796Z,101063.58
2019-05-30T04:55:22.814Z,101073.88
2019-05-30T05:00:26.284Z,101077.92
2019-05-30T05:05:30.308Z,101077.92
2019-05-30T05:10:34.431Z,101064.11
2019-05-30T05:15:38.538Z,101061.32
2019-05-30T05:20:42.654Z,101059.20
2019-05-30T05:25:59.832Z,101059.20
2019-05-30T05:30:52.437Z,101072.60
2019-05-30T05:35:56.536Z,101068.56
2019-05-30T05:41:00.558Z,101074.81
2019-05-30T05:46:04.667Z,101076.16
2019-05-30T05:51:08.766Z,101073.47
2019-05-30T05:56:12.883Z,101069.84
2019-05-30T06:01:17.345Z,101068.88
2019-05-30T06:06:21.574Z,101063.96
2019-05-30T06:11:25.594Z,101056.31
2019-05-30T06:16:29.636Z,101070.13
2019-05-30T06:21:33.670Z,101077.28
2019-05-30T06:26:37.712Z,101087.58
2019-05-30T06:31:41.840Z,101079.01
2019-05-30T06:36:45.876Z,101070.77
2019-05-30T06:41:49.894Z,101070.77
2019-05-30T06:46:54.088Z,101086.06
2019-05-30T06:51:58.197Z,101082.23
2019-05-30T06:57:02.296Z,101069.52
2019-05-30T07:02:06.775Z,101070.02
2019-05-30T07:07:11.003Z,101078.16
2019-05-30T07:12:15.368Z,101078.26
2019-05-30T07:17:23.166Z,101081.76
2019-05-30T07:22:27.730Z,101078.56
2019-05-30T07:27:32.098Z,101070.41
2019-05-30T07:32:36.270Z,101074.17
2019-05-30T07:37:40.313Z,101074.31
2019-05-30T07:42:44.364Z,101074.31
2019-05-30T07:47:48.392Z,101071.34
2019-05-30T07:52:52.551Z,101077.33
2019-05-30T07:57:56.731Z,101077.33
2019-05-30T08:03:00.777Z,101063.58
2019-05-30T08:08:04.945Z,101047.50
2019-05-30T08:13:09.190Z,101057.54
2019-05-30T08:18:13.273Z,101043.36
2019-05-30T08:23:17.336Z,101036.16
2019-05-30T08:28:21.475Z,101043.77
2019-05-30T08:33:25.576Z,101042.95
2019-05-30T08:38:30.937Z,101039.94
2019-05-30T08:43:35.597Z,101024.53
2019-05-30T08:48:40.392Z,101041.53
2019-05-30T08:53:44.541Z,101029.01
2019-05-30T08:58:48.562Z,101032.77
2019-05-30T09:03:52.779Z,101032.77
2019-05-30T09:08:56.923Z,101029.81
2019-05-30T09:14:01.015Z,101009.94
2019-05-30T09:19:05.806Z,101018.70
2019-05-30T09:24:09.963Z,101012.98
2019-05-30T09:29:14.140Z,101012.98
2019-05-30T09:34:18.148Z,101004.72
2019-05-30T09:39:22.231Z,100991.48
2019-05-30T09:44:26.229Z,100991.48
2019-05-30T09:49:30.293Z,101006.11
2019-05-30T09:54:34.315Z,101004.44
2019-05-30T09:59:38.308Z,101004.30
2019-05-30T10:04:43.527Z,101008.92
2019-05-30T10:09:48.885Z,100991.25
2019-05-30T10:14:53.226Z,100991.25
2019-05-30T10:19:57.346Z,100986.70
2019-05-30T10:25:01.339Z,100984.14
2019-05-30T10:30:07.667Z,100984.14
2019-05-30T10:35:13.080Z,100972.92
2019-05-30T10:40:18.647Z,100972.92
2019-05-30T10:45:24.731Z,100959.45
2019-05-30T10:50:28.839Z,100966.83
2019-05-30T10:55:33.027Z,100966.83
2019-05-30T11:00:47.241Z,100941.07
2019-05-30T11:05:59.266Z,100941.07
2019-05-30T11:11:03.317Z,100949.19
2019-05-30T11:16:07.340Z,100927.38
2019-05-30T11:21:11.456Z,100934.67
2019-05-30T11:26:15.538Z,100934.67
2019-05-30T11:31:19.653Z,100916.39
2019-05-30T11:36:26.895Z,100917.34
2019-05-30T11:41:30.913Z,100918.14
2019-05-30T11:46:35.012Z,100918.14
2019-05-30T11:51:39.003Z,100905.63
2019-05-30T11:56:43.164Z,100902.33
2019-05-30T12:01:47.296Z,100892.02
2019-05-30T12:06:52.746Z,100896.56
2019-05-30T12:11:57.418Z,100896.56
2019-05-30T12:17:01.695Z,100871.03
2019-05-30T12:22:05.971Z,100866.31
2019-05-30T12:27:10.082Z,100870.62
2019-05-30T12:32:14.085Z,100867.73
2019-05-30T12:37:18.177Z,100862.16
2019-05-30T12:42:22.187Z,100858.00
2019-05-30T12:47:26.204Z,100855.69
2019-05-30T12:52:30.286Z,100856.74
2019-05-30T12:57:34.375Z,100856.74
2019-05-30T13:02:38.521Z,100853.05
2019-05-30T13:07:42.543Z,100836.37
2019-05-30T13:12:46.653Z,100852.53
2019-05-30T13:17:50.682Z,100853.25
2019-05-30T13:22:56.171Z,100853.25
2019-05-30T13:28:03.739Z,100851.52
2019-05-30T13:33:06.949Z,100842.14
2019-05-30T13:38:25.507Z,100834.98
2019-05-30T13:43:16.894Z,100839.41
2019-05-30T13:48:20.900Z,100831.97
2019-05-30T13:53:24.939Z,100831.17
2019-05-30T13:58:29.015Z,100818.22
2019-05-30T14:03:33.080Z,100821.19
2019-05-30T14:08:41.552Z,100813.37
2019-05-30T14:13:42.931Z,100806.15
2019-05-30T14:18:46.997Z,100806.15
2019-05-30T14:23:51.012Z,100818.72
2019-05-30T14:28:55.091Z,100821.19
2019-05-30T14:33:59.124Z,100811.91
2019-05-30T14:39:04.748Z,100824.76
2019-05-30T14:44:09.015Z,100827.64
2019-05-30T14:49:13.163Z,100821.31
2019-05-30T14:54:17.506Z,100818.53
2019-05-30T14:59:21.754Z,100818.53
2019-05-30T15:04:25.762Z,100800.05
2019-05-30T15:09:29.773Z,100805.11
2019-05-30T15:14:33.884Z,100802.28
2019-05-30T15:19:38.046Z,100795.21
2019-05-30T15:24:42.092Z,100794.98
2019-05-30T15:29:46.147Z,100786.83
2019-05-30T15:34:50.175Z,100788.44
2019-05-30T15:39:54.248Z,100785.20
2019-05-30T15:44:58.551Z,100789.79
2019-05-30T15:50:02.651Z,100789.79
2019-05-30T15:55:07.306Z,100791.26
2019-05-30T16:00:14.003Z,100800.16
2019-05-30T16:05:18.773Z,100799.96
2019-05-30T16:10:23.091Z,100795.05
2019-05-30T16:15:27.189Z,100789.73
2019-05-30T16:20:31.624Z,100770.75
2019-05-30T16:25:35.873Z,100770.75
2019-05-30T16:30:40.086Z,100771.86
2019-05-30T16:35:44.571Z,100787.69
2019-05-30T16:40:48.573Z,100780.30
2019-05-30T16:45:52.574Z,100784.24
2019-05-30T16:50:56.643Z,100784.24
2019-05-30T16:56:00.648Z,100783.75
2019-05-30T17:01:04.799Z,100783.75
2019-05-30T17:06:08.857Z,100784.06
2019-05-30T17:11:12.866Z,100785.89
2019-05-30T17:16:17.793Z,100786.97
2019-05-30T17:21:22.737Z,100787.16
2019-05-30T17:26:27.414Z,100797.29
2019-05-30T17:31:31.624Z,100798.16
2019-05-30T17:36:35.632Z,100794.75
2019-05-30T17:41:39.793Z,100797.20
2019-05-30T17:46:43.833Z,100801.75
2019-05-30T18:19:31.504Z,100823.27
2019-05-30T18:24:35.728Z,100822.27
2019-05-30T18:29:39.903Z,100820.51
2019-05-30T18:34:43.990Z,100832.99
2019-05-30T18:39:48.112Z,100832.99
2019-05-30T18:44:52.266Z,100838.30
2019-05-30T18:49:56.299Z,100835.05
2019-05-30T18:55:00.426Z,100828.18
2019-05-30T19:00:05.334Z,100818.55
2019-05-30T19:10:36.848Z,100839.59
2019-05-30T19:15:40.954Z,100847.22
2019-05-30T19:20:44.990Z,100850.89
2019-05-30T19:25:49.241Z,100843.03
2019-05-30T19:30:53.328Z,100843.03
2019-05-30T19:35:57.363Z,100856.00
2019-05-30T19:41:01.582Z,100874.66
2019-05-30T19:46:05.739Z,100874.66
2019-05-30T19:51:09.756Z,100875.52
2019-05-30T19:56:13.898Z,100878.80
2019-05-30T20:06:28.169Z,100881.61
2019-05-30T20:11:33.235Z,100880.38
2019-05-30T20:16:37.873Z,100893.50
2019-05-30T20:21:42.103Z,100889.53
2019-05-30T20:26:46.273Z,100896.40
2019-05-30T20:31:50.288Z,100900.94
2019-05-30T20:36:54.291Z,100901.91
2019-05-30T20:41:58.309Z,100901.91
2019-05-30T20:47:02.312Z,100911.97
2019-05-30T20:52:06.479Z,100912.91
2019-05-30T20:57:10.614Z,100912.91
2019-05-30T21:02:14.730Z,100922.28
2019-05-30T21:07:20.632Z,100913.58
2019-05-30T21:12:36.908Z,100919.48
2019-05-30T21:17:34.145Z,100911.25
2019-05-30T21:22:40.192Z,100908.44
2019-05-30T21:27:45.233Z,100911.44
2019-05-30T21:32:49.780Z,100915.00
2019-05-30T21:37:53.990Z,100912.68
2019-05-30T21:43:06.343Z,100912.68
2019-05-30T21:48:04.166Z,100910.76
2019-05-30T21:53:08.252Z,100913.54
2019-05-30T21:58:12.262Z,100911.70
2019-05-30T22:03:16.419Z,100917.89
2019-05-30T22:08:20.526Z,100917.89
2019-05-30T22:13:24.914Z,100921.83
2019-05-30T22:18:28.929Z,100926.37
2019-05-30T22:23:32.964Z,100920.48
2019-05-30T22:28:37.004Z,100906.52
2019-05-30T22:33:41.016Z,100917.17
2019-05-30T22:38:45.118Z,100920.73
2019-05-30T22:43:49.141Z,100914.39
2019-05-30T22:48:53.192Z,100914.39
2019-05-30T22:53:57.402Z,100922.39
2019-05-30T22:59:01.526Z,100894.14
2019-05-30T23:04:05.600Z,100914.16
2019-05-30T23:09:09.841Z,100914.16
2019-05-30T23:14:14.014Z,100916.00
2019-05-30T23:19:18.041Z,100905.36
2019-05-30T23:24:22.059Z,100904.57
2019-05-30T23:29:26.074Z,100915.08
2019-05-30T23:34:30.132Z,100913.91
2019-05-30T23:39:34.177Z,100912.30
2019-05-30T23:44:38.200Z,100910.20
2019-05-30T23:49:42.269Z,100910.20
2019-05-30T23:54:46.287Z,100898.84
2019-05-30T23:59:50.657Z,100896.22
